createdAt,value
2017-09-15T00:00:35.715Z,997.94
2017-09-15T00:01:37.130Z,998.00
2017-09-15T00:02:38.546Z,997.98
2017-09-15T00:03:39.967Z,997.98
2017-09-15T00:04:41.384Z,997.96
2017-09-15T00:05:42.815Z,998.02
2017-09-15T00:06:44.235Z,998.02
2017-09-15T00:07:45.649Z,998.01
2017-09-15T00:08:47.072Z,998.07
2017-09-15T00:09:48.539Z,998.06
2017-09-15T00:10:49.995Z,998.07
2017-09-15T00:11:51.408Z,998.12
2017-09-15T00:12:52.881Z,998.09
2017-09-15T00:13:54.295Z,998.11
2017-09-15T00:14:55.711Z,998.10
2017-09-15T00:15:57.131Z,998.08
2017-09-15T00:16:58.550Z,998.10
2017-09-15T00:17:59.969Z,998.09
2017-09-15T00:19:01.385Z,998.11
2017-09-15T00:20:02.810Z,998.14
2017-09-15T00:21:04.236Z,998.13
2017-09-15T00:22:05.660Z,998.09
2017-09-15T00:23:07.087Z,998.12
2017-09-15T00:24:08.516Z,998.10
2017-09-15T00:25:09.926Z,998.12
2017-09-15T00:26:11.339Z,998.11
2017-09-15T00:27:12.755Z,998.11
2017-09-15T00:28:14.179Z,998.10
2017-09-15T00:29:15.596Z,998.16
2017-09-15T00:30:17.026Z,998.17
2017-09-15T00:31:18.435Z,998.15
2017-09-15T00:32:19.854Z,998.18
2017-09-15T00:33:21.274Z,998.22
2017-09-15T00:34:22.693Z,998.24
2017-09-15T00:35:24.204Z,998.28
2017-09-15T00:36:25.623Z,998.28
2017-09-15T00:37:27.054Z,998.29
2017-09-15T00:38:28.490Z,998.29
2017-09-15T00:39:29.909Z,998.29
2017-09-15T00:40:31.370Z,998.25
2017-09-15T00:41:32.811Z,998.28
2017-09-15T00:42:34.250Z,998.34
2017-09-15T00:43:35.674Z,998.31
2017-09-15T00:44:37.116Z,998.29
2017-09-15T00:45:38.528Z,998.27
2017-09-15T00:46:39.944Z,998.31
2017-09-15T00:47:41.360Z,998.31
2017-09-15T00:48:42.796Z,998.27
2017-09-15T00:49:44.261Z,998.27
2017-09-15T00:50:45.695Z,998.32
2017-09-15T00:51:47.116Z,998.34
2017-09-15T00:52:48.523Z,998.31
2017-09-15T00:53:49.932Z,998.28
2017-09-15T00:54:51.358Z,998.31
2017-09-15T00:55:52.768Z,998.30
2017-09-15T00:56:54.186Z,998.29
2017-09-15T00:57:55.653Z,998.31
2017-09-15T00:58:57.063Z,998.29
2017-09-15T00:59:58.480Z,998.31
2017-09-15T01:00:59.899Z,998.31
2017-09-15T01:02:01.377Z,998.30
2017-09-15T01:03:02.795Z,998.40
2017-09-15T01:04:04.217Z,998.33
2017-09-15T01:05:05.663Z,998.33
2017-09-15T01:06:07.077Z,998.41
2017-09-15T01:07:08.493Z,998.44
2017-09-15T01:08:09.909Z,998.40
2017-09-15T01:09:11.317Z,998.38
2017-09-15T01:10:12.746Z,998.35
2017-09-15T01:11:14.169Z,998.32
2017-09-15T01:12:15.594Z,998.42
2017-09-15T01:13:17.122Z,998.40
2017-09-15T01:14:18.627Z,998.40
2017-09-15T01:15:20.042Z,998.39
2017-09-15T01:16:21.499Z,998.37
2017-09-15T01:17:22.912Z,998.41
2017-09-15T01:18:24.333Z,998.39
2017-09-15T01:19:25.745Z,998.39
2017-09-15T01:20:27.196Z,998.37
2017-09-15T01:21:28.619Z,998.40
2017-09-15T01:22:30.039Z,998.50
2017-09-15T01:23:31.462Z,998.46
2017-09-15T01:24:32.883Z,998.41
2017-09-15T01:25:34.369Z,998.42
2017-09-15T01:26:35.785Z,998.44
2017-09-15T01:27:37.208Z,998.40
2017-09-15T01:28:38.698Z,998.46
2017-09-15T01:29:40.124Z,998.46
2017-09-15T01:30:41.582Z,998.42
2017-09-15T01:31:43.003Z,998.44
2017-09-15T01:32:44.538Z,998.39
2017-09-15T01:33:45.963Z,998.47
2017-09-15T01:34:47.382Z,998.47
2017-09-15T01:35:48.911Z,998.46
2017-09-15T01:36:50.319Z,998.49
2017-09-15T01:37:51.739Z,998.50
2017-09-15T01:38:53.150Z,998.50
2017-09-15T01:39:54.568Z,998.49
2017-09-15T01:40:55.983Z,998.48
2017-09-15T01:41:57.398Z,998.46
2017-09-15T01:42:58.820Z,998.50
2017-09-15T01:44:00.239Z,998.45
2017-09-15T01:45:01.649Z,998.49
2017-09-15T01:46:03.064Z,998.47
2017-09-15T01:47:04.479Z,998.54
2017-09-15T01:48:05.903Z,998.52
2017-09-15T01:49:07.315Z,998.50
2017-09-15T01:50:08.737Z,998.46
2017-09-15T01:51:10.155Z,998.45
2017-09-15T01:52:11.578Z,998.49
2017-09-15T01:53:13.004Z,998.52
2017-09-15T01:54:14.423Z,998.54
2017-09-15T01:55:15.850Z,998.55
2017-09-15T01:56:17.264Z,998.57
2017-09-15T01:57:18.684Z,998.53
2017-09-15T01:58:20.099Z,998.55
2017-09-15T01:59:21.517Z,998.55
2017-09-15T02:00:22.933Z,998.58
2017-09-15T02:01:24.359Z,998.55
2017-09-15T02:02:25.782Z,998.55
2017-09-15T02:03:27.194Z,998.58
2017-09-15T02:04:28.619Z,998.59
2017-09-15T02:05:30.033Z,998.62
2017-09-15T02:06:31.443Z,998.58
2017-09-15T02:07:32.859Z,998.59
2017-09-15T02:08:34.283Z,998.61
2017-09-15T02:09:35.697Z,998.60
2017-09-15T02:10:37.106Z,998.60
2017-09-15T02:11:38.524Z,998.58
2017-09-15T02:12:39.959Z,998.62
2017-09-15T02:13:41.372Z,998.67
2017-09-15T02:14:42.788Z,998.63
2017-09-15T02:15:44.211Z,998.60
2017-09-15T02:16:45.624Z,998.62
2017-09-15T02:17:47.094Z,998.62
2017-09-15T02:18:48.537Z,998.66
2017-09-15T02:19:49.951Z,998.67
2017-09-15T02:20:51.367Z,998.65
2017-09-15T02:21:52.783Z,998.66
2017-09-15T02:22:54.201Z,998.69
2017-09-15T02:23:55.619Z,998.68
2017-09-15T02:24:57.037Z,998.68
2017-09-15T02:25:58.453Z,998.69
2017-09-15T02:26:59.866Z,998.74
2017-09-15T02:28:01.282Z,998.72
2017-09-15T02:29:02.701Z,998.75
2017-09-15T02:30:04.115Z,998.76
2017-09-15T02:31:05.529Z,998.74
2017-09-15T02:32:06.956Z,998.76
2017-09-15T02:33:08.376Z,998.73
2017-09-15T02:34:09.792Z,998.70
2017-09-15T02:35:11.202Z,998.73
2017-09-15T02:36:12.620Z,998.72
2017-09-15T02:37:14.026Z,998.72
2017-09-15T02:38:15.449Z,998.73
2017-09-15T02:39:16.866Z,998.76
2017-09-15T02:40:18.277Z,998.73
2017-09-15T02:41:19.694Z,998.75
2017-09-15T02:42:21.107Z,998.75
2017-09-15T02:43:22.522Z,998.73
2017-09-15T02:44:23.944Z,998.78
2017-09-15T02:45:25.365Z,998.73
2017-09-15T02:46:26.788Z,998.72
2017-09-15T02:47:28.213Z,998.70
2017-09-15T02:48:29.664Z,998.74
2017-09-15T02:49:31.081Z,998.71
2017-09-15T02:50:32.501Z,998.71
2017-09-15T02:51:33.922Z,998.69
2017-09-15T02:52:35.337Z,998.70
2017-09-15T02:53:36.753Z,998.71
2017-09-15T02:54:38.170Z,998.75
2017-09-15T02:55:39.598Z,998.74
2017-09-15T02:56:41.018Z,998.76
2017-09-15T02:57:42.432Z,998.73
2017-09-15T02:58:43.849Z,998.69
2017-09-15T02:59:45.270Z,998.77
2017-09-15T03:00:46.806Z,998.69
2017-09-15T03:01:48.219Z,998.69
2017-09-15T03:02:49.654Z,998.67
2017-09-15T03:03:51.102Z,998.68
2017-09-15T03:04:52.526Z,998.68
2017-09-15T03:05:53.946Z,998.66
2017-09-15T03:06:55.374Z,998.65
2017-09-15T03:07:56.805Z,998.61
2017-09-15T03:08:58.237Z,998.62
2017-09-15T03:09:59.660Z,998.63
2017-09-15T03:11:01.074Z,998.63
2017-09-15T03:12:02.485Z,998.57
2017-09-15T03:13:03.904Z,998.60
2017-09-15T03:14:05.320Z,998.58
2017-09-15T03:15:06.743Z,998.52
2017-09-15T03:16:08.163Z,998.51
2017-09-15T03:17:09.575Z,998.47
2017-09-15T03:18:11.011Z,998.50
2017-09-15T03:19:12.427Z,998.43
2017-09-15T03:20:13.850Z,998.44
2017-09-15T03:21:15.269Z,998.40
2017-09-15T03:22:16.683Z,998.43
2017-09-15T03:23:18.110Z,998.47
2017-09-15T03:24:19.517Z,998.45
2017-09-15T03:25:20.929Z,998.47
2017-09-15T03:26:22.347Z,998.47
2017-09-15T03:27:23.764Z,998.49
2017-09-15T03:28:25.177Z,998.49
2017-09-15T03:29:26.600Z,998.52
2017-09-15T03:30:28.021Z,998.56
2017-09-15T03:31:29.434Z,998.53
2017-09-15T03:32:30.849Z,998.55
2017-09-15T03:33:32.264Z,998.56
2017-09-15T03:34:33.678Z,998.59
2017-09-15T03:35:35.099Z,998.63
2017-09-15T03:36:36.514Z,998.60
2017-09-15T03:37:37.927Z,998.62
2017-09-15T03:38:39.341Z,998.63
2017-09-15T03:39:40.758Z,998.67
2017-09-15T03:40:42.170Z,998.71
2017-09-15T03:41:43.582Z,998.69
2017-09-15T03:42:45.066Z,998.67
2017-09-15T03:43:46.490Z,998.71
2017-09-15T03:44:47.915Z,998.72
2017-09-15T03:45:49.340Z,998.70
2017-09-15T03:46:50.753Z,998.70
2017-09-15T03:47:52.171Z,998.75
2017-09-15T03:48:53.585Z,998.74
2017-09-15T03:49:55.079Z,998.72
2017-09-15T03:50:56.502Z,998.75
2017-09-15T03:51:57.913Z,998.69
2017-09-15T03:52:59.334Z,998.68
2017-09-15T03:54:00.755Z,998.67
2017-09-15T03:55:02.171Z,998.70
2017-09-15T03:56:03.583Z,998.67
2017-09-15T03:57:04.997Z,998.68
2017-09-15T03:58:06.406Z,998.71
2017-09-15T03:59:07.828Z,998.72
2017-09-15T04:00:09.237Z,998.75
2017-09-15T04:01:10.652Z,998.76
2017-09-15T04:02:12.077Z,998.74
2017-09-15T04:03:13.503Z,998.74
2017-09-15T04:04:14.916Z,998.79
2017-09-15T04:05:16.350Z,998.75
2017-09-15T04:06:17.757Z,998.76
2017-09-15T04:07:19.174Z,998.77
2017-09-15T04:08:20.598Z,998.79
2017-09-15T04:09:22.008Z,998.79
2017-09-15T04:10:23.432Z,998.75
2017-09-15T04:11:24.845Z,998.78
2017-09-15T04:12:26.277Z,998.73
2017-09-15T04:13:27.707Z,998.76
2017-09-15T04:14:29.166Z,998.76
2017-09-15T04:15:30.588Z,998.79
2017-09-15T04:16:32.058Z,998.71
2017-09-15T04:17:33.782Z,998.77
2017-09-15T04:18:35.342Z,998.73
2017-09-15T04:19:36.927Z,998.77
2017-09-15T04:20:38.396Z,998.78
2017-09-15T04:21:39.819Z,998.79
2017-09-15T04:22:41.288Z,998.79
2017-09-15T04:23:42.733Z,998.73
2017-09-15T04:24:44.155Z,998.75
2017-09-15T04:25:45.583Z,998.74
2017-09-15T04:26:47.029Z,998.72
2017-09-15T04:27:48.581Z,998.72
2017-09-15T04:28:50.009Z,998.69
2017-09-15T04:29:51.430Z,998.70
2017-09-15T04:30:52.906Z,998.70
2017-09-15T04:31:54.327Z,998.73
2017-09-15T04:32:55.750Z,998.65
2017-09-15T04:33:57.223Z,998.69
2017-09-15T04:34:58.648Z,998.68
2017-09-15T04:36:00.072Z,998.69
2017-09-15T04:37:01.496Z,998.69
2017-09-15T04:38:02.914Z,998.69
2017-09-15T04:39:04.334Z,998.64
2017-09-15T04:40:05.752Z,998.66
2017-09-15T04:41:07.186Z,998.68
2017-09-15T04:42:08.618Z,998.67
2017-09-15T04:43:10.025Z,998.68
2017-09-15T04:44:11.460Z,998.67
2017-09-15T04:45:12.870Z,998.64
2017-09-15T04:46:14.333Z,998.72
2017-09-15T04:47:15.748Z,998.65
2017-09-15T04:48:17.169Z,998.68
2017-09-15T04:49:18.601Z,998.70
2017-09-15T04:50:20.011Z,998.67
2017-09-15T04:51:21.472Z,998.66
2017-09-15T04:52:22.889Z,998.70
2017-09-15T04:53:24.314Z,998.65
2017-09-15T04:54:25.729Z,998.64
2017-09-15T04:55:27.147Z,998.61
2017-09-15T04:56:28.581Z,998.64
2017-09-15T04:57:30.001Z,998.66
2017-09-15T04:58:31.419Z,998.61
2017-09-15T04:59:32.831Z,998.66
2017-09-15T05:00:34.250Z,998.62
2017-09-15T05:01:35.667Z,998.62
2017-09-15T05:02:37.077Z,998.62
2017-09-15T05:03:38.497Z,998.62
2017-09-15T05:04:39.924Z,998.67
2017-09-15T05:05:41.360Z,998.67
2017-09-15T05:06:42.768Z,998.68
2017-09-15T05:07:44.186Z,998.69
2017-09-15T05:08:45.605Z,998.74
2017-09-15T05:09:47.019Z,998.78
2017-09-15T05:10:48.439Z,998.77
2017-09-15T05:11:49.850Z,998.73
2017-09-15T05:12:51.264Z,998.75
2017-09-15T05:13:52.685Z,998.77
2017-09-15T05:14:54.091Z,998.74
2017-09-15T05:15:55.505Z,998.74
2017-09-15T05:16:56.919Z,998.74
2017-09-15T05:17:58.347Z,998.72
2017-09-15T05:18:59.767Z,998.71
2017-09-15T05:20:01.259Z,998.72
2017-09-15T05:21:02.684Z,998.71
2017-09-15T05:22:04.109Z,998.68
2017-09-15T05:23:05.524Z,998.68
2017-09-15T05:24:06.950Z,998.65
2017-09-15T05:25:08.477Z,998.64
2017-09-15T05:26:09.898Z,998.64
2017-09-15T05:27:11.310Z,998.61
2017-09-15T05:28:12.736Z,998.65
2017-09-15T05:29:14.152Z,998.60
2017-09-15T05:30:15.566Z,998.61
2017-09-15T05:31:16.981Z,998.58
2017-09-15T05:32:18.399Z,998.58
2017-09-15T05:33:19.819Z,998.56
2017-09-15T05:34:21.240Z,998.53
2017-09-15T05:35:22.666Z,998.56
2017-09-15T05:36:24.079Z,998.48
2017-09-15T05:37:25.499Z,998.48
2017-09-15T05:38:26.916Z,998.53
2017-09-15T05:39:28.331Z,998.49
2017-09-15T05:40:29.753Z,998.48
2017-09-15T05:41:31.180Z,998.44
2017-09-15T05:42:32.597Z,998.43
2017-09-15T05:43:34.016Z,998.42
2017-09-15T05:44:35.433Z,998.42
2017-09-15T05:45:36.856Z,998.37
2017-09-15T05:46:38.269Z,998.41
2017-09-15T05:47:39.685Z,998.39
2017-09-15T05:48:41.101Z,998.41
2017-09-15T05:49:42.522Z,998.43
2017-09-15T05:50:43.947Z,998.40
2017-09-15T05:51:45.368Z,998.38
2017-09-15T05:52:46.787Z,998.40
2017-09-15T05:53:48.211Z,998.36
2017-09-15T05:54:49.627Z,998.38
2017-09-15T05:55:51.045Z,998.40
2017-09-15T05:56:52.472Z,998.40
2017-09-15T05:57:53.899Z,998.40
2017-09-15T05:58:55.331Z,998.42
2017-09-15T05:59:56.748Z,998.40
2017-09-15T06:00:58.172Z,998.38
2017-09-15T06:01:59.588Z,998.45
2017-09-15T06:03:01.013Z,998.44
2017-09-15T06:04:02.442Z,998.44
2017-09-15T06:05:03.861Z,998.39
2017-09-15T06:06:05.299Z,998.44
2017-09-15T06:07:06.730Z,998.42
2017-09-15T06:08:08.151Z,998.39
2017-09-15T06:09:09.569Z,998.40
2017-09-15T06:10:10.991Z,998.40
2017-09-15T06:11:12.419Z,998.38
2017-09-15T06:12:13.842Z,998.40
2017-09-15T06:13:15.258Z,998.41
2017-09-15T06:14:16.674Z,998.39
2017-09-15T06:15:18.115Z,998.39
2017-09-15T06:16:19.536Z,998.39
2017-09-15T06:17:20.952Z,998.40
2017-09-15T06:18:22.372Z,998.42
2017-09-15T06:19:23.797Z,998.36
2017-09-15T06:20:25.216Z,998.36
2017-09-15T06:21:26.631Z,998.37
2017-09-15T06:22:28.060Z,998.42
2017-09-15T06:23:29.480Z,998.38
2017-09-15T06:24:30.901Z,998.36
2017-09-15T06:25:32.329Z,998.37
2017-09-15T06:26:33.745Z,998.32
2017-09-15T06:27:35.163Z,998.34
2017-09-15T06:28:36.586Z,998.34
2017-09-15T06:29:38.003Z,998.27
2017-09-15T06:30:39.417Z,998.28
2017-09-15T06:31:40.839Z,998.31
2017-09-15T06:32:42.262Z,998.28
2017-09-15T06:33:43.690Z,998.23
2017-09-15T06:34:45.106Z,998.25
2017-09-15T06:35:46.526Z,998.29
2017-09-15T06:36:47.949Z,998.32
2017-09-15T06:37:49.365Z,998.28
2017-09-15T06:38:50.779Z,998.29
2017-09-15T06:39:52.199Z,998.30
2017-09-15T06:40:53.627Z,998.27
2017-09-15T06:41:55.045Z,998.22
2017-09-15T06:42:56.473Z,998.29
2017-09-15T06:43:57.891Z,998.29
2017-09-15T06:45:00.196Z,998.26
2017-09-15T06:46:01.624Z,998.29
2017-09-15T06:47:03.060Z,998.31
2017-09-15T06:48:04.499Z,998.32
2017-09-15T06:49:05.918Z,998.31
2017-09-15T06:50:07.336Z,998.32
2017-09-15T06:51:08.761Z,998.28
2017-09-15T06:52:10.173Z,998.34
2017-09-15T06:53:11.593Z,998.28
2017-09-15T06:54:13.013Z,998.32
2017-09-15T06:55:14.433Z,998.35
2017-09-15T06:56:15.849Z,998.32
2017-09-15T06:57:17.273Z,998.29
2017-09-15T06:58:18.695Z,998.29
2017-09-15T06:59:20.115Z,998.30
2017-09-15T07:00:21.539Z,998.31
2017-09-15T07:01:22.959Z,998.31
2017-09-15T07:02:24.389Z,998.31
2017-09-15T07:03:25.805Z,998.31
2017-09-15T07:04:27.229Z,998.26
2017-09-15T07:05:28.649Z,998.29
2017-09-15T07:06:30.071Z,998.29
2017-09-15T07:07:31.508Z,998.33
2017-09-15T07:08:32.930Z,998.35
2017-09-15T07:09:34.345Z,998.37
2017-09-15T07:10:35.773Z,998.33
2017-09-15T07:11:37.196Z,998.41
2017-09-15T07:12:38.611Z,998.38
2017-09-15T07:13:40.059Z,998.39
2017-09-15T07:14:41.473Z,998.39
2017-09-15T07:15:42.897Z,998.41
2017-09-15T07:16:44.329Z,998.45
2017-09-15T07:17:45.740Z,998.46
2017-09-15T07:18:47.158Z,998.43
2017-09-15T07:19:48.582Z,998.45
2017-09-15T07:20:50.009Z,998.44
2017-09-15T07:21:51.430Z,998.44
2017-09-15T07:22:52.847Z,998.48
2017-09-15T07:23:54.273Z,998.49
2017-09-15T07:24:55.694Z,998.49
2017-09-15T07:25:57.111Z,998.54
2017-09-15T07:26:58.537Z,998.56
2017-09-15T07:27:59.955Z,998.54
2017-09-15T07:29:01.380Z,998.56
2017-09-15T07:30:02.819Z,998.55
2017-09-15T07:31:04.232Z,998.53
2017-09-15T07:32:05.648Z,998.50
2017-09-15T07:33:07.076Z,998.51
2017-09-15T07:34:08.514Z,998.51
2017-09-15T07:35:09.931Z,998.56
2017-09-15T07:36:11.350Z,998.53
2017-09-15T07:37:12.775Z,998.57
2017-09-15T07:38:14.191Z,998.56
2017-09-15T07:39:15.610Z,998.57
2017-09-15T07:40:17.122Z,998.58
2017-09-15T07:41:18.542Z,998.58
2017-09-15T07:42:19.962Z,998.59
2017-09-15T07:43:21.378Z,998.63
2017-09-15T07:44:22.909Z,998.66
2017-09-15T07:45:24.336Z,998.68
2017-09-15T07:46:25.759Z,998.71
2017-09-15T07:47:27.184Z,998.74
2017-09-15T07:48:28.613Z,998.78
2017-09-15T07:49:30.845Z,998.81
2017-09-15T07:50:32.294Z,998.86
2017-09-15T07:51:33.713Z,998.85
2017-09-15T07:52:35.134Z,998.82
2017-09-15T07:53:36.551Z,998.86
2017-09-15T07:54:37.967Z,998.81
2017-09-15T07:55:39.387Z,998.78
2017-09-15T07:56:40.808Z,998.76
2017-09-15T07:57:42.228Z,998.75
2017-09-15T07:58:43.646Z,998.74
2017-09-15T07:59:45.073Z,998.80
2017-09-15T08:00:46.494Z,998.77
2017-09-15T08:01:47.920Z,998.78
2017-09-15T08:02:49.343Z,998.76
2017-09-15T08:03:50.762Z,998.72
2017-09-15T08:04:52.192Z,998.76
2017-09-15T08:05:53.610Z,998.76
2017-09-15T08:06:55.027Z,998.78
2017-09-15T08:07:56.452Z,998.79
2017-09-15T08:08:57.883Z,998.78
2017-09-15T08:09:59.306Z,998.81
2017-09-15T08:11:00.722Z,998.86
2017-09-15T08:12:02.140Z,998.86
2017-09-15T08:13:03.561Z,998.85
2017-09-15T08:14:04.985Z,998.92
2017-09-15T08:15:06.400Z,998.91
2017-09-15T08:16:07.820Z,998.91
2017-09-15T08:17:09.246Z,998.93
2017-09-15T08:18:10.682Z,998.93
2017-09-15T08:19:12.097Z,998.93
2017-09-15T08:20:13.523Z,998.95
2017-09-15T08:21:14.943Z,998.92
2017-09-15T08:22:16.365Z,998.95
2017-09-15T08:23:17.785Z,998.92
2017-09-15T08:24:19.203Z,998.91
2017-09-15T08:25:20.628Z,998.92
2017-09-15T08:26:22.051Z,998.90
2017-09-15T08:27:23.474Z,998.93
2017-09-15T08:28:25.874Z,998.85
2017-09-15T08:29:27.299Z,998.85
2017-09-15T08:30:28.713Z,998.85
2017-09-15T08:31:30.136Z,998.85
2017-09-15T08:32:31.550Z,998.84
2017-09-15T08:33:32.985Z,998.86
2017-09-15T08:34:34.397Z,998.84
2017-09-15T08:35:35.813Z,998.87
2017-09-15T08:36:37.239Z,998.87
2017-09-15T08:37:38.663Z,998.88
2017-09-15T08:38:40.081Z,998.84
2017-09-15T08:39:41.501Z,998.79
2017-09-15T08:40:42.916Z,998.80
2017-09-15T08:41:44.921Z,998.77
2017-09-15T08:42:46.351Z,998.81
2017-09-15T08:43:47.771Z,998.76
2017-09-15T08:44:49.194Z,998.81
2017-09-15T08:45:50.635Z,998.77
2017-09-15T08:46:52.054Z,998.77
2017-09-15T08:47:53.533Z,998.78
2017-09-15T08:48:54.954Z,998.80
2017-09-15T08:49:56.372Z,998.80
2017-09-15T08:50:57.801Z,998.79
2017-09-15T08:51:59.223Z,998.80
2017-09-15T08:53:00.648Z,998.80
2017-09-15T08:54:02.069Z,998.80
2017-09-15T08:55:03.485Z,998.77
2017-09-15T08:56:04.914Z,998.84
2017-09-15T08:57:06.338Z,998.82
2017-09-15T08:58:07.764Z,998.78
2017-09-15T08:59:09.183Z,998.80
2017-09-15T09:00:10.631Z,998.76
2017-09-15T09:01:12.051Z,998.76
2017-09-15T09:02:13.472Z,998.75
2017-09-15T09:03:14.900Z,998.78
2017-09-15T09:04:16.330Z,998.78
2017-09-15T09:05:17.750Z,998.74
2017-09-15T09:06:19.161Z,998.73
2017-09-15T09:07:20.580Z,998.69
2017-09-15T09:08:21.995Z,998.72
2017-09-15T09:09:23.417Z,998.68
2017-09-15T09:10:24.841Z,998.65
2017-09-15T09:11:26.270Z,998.74
2017-09-15T09:12:27.698Z,998.70
2017-09-15T09:13:29.122Z,998.71
2017-09-15T09:14:30.575Z,998.72
2017-09-15T09:15:31.992Z,998.71
2017-09-15T09:16:33.412Z,998.67
2017-09-15T09:17:34.836Z,998.72
2017-09-15T09:18:36.254Z,998.69
2017-09-15T09:19:37.687Z,998.69
2017-09-15T09:20:39.104Z,998.68
2017-09-15T09:21:40.569Z,998.62
2017-09-15T09:22:41.997Z,998.57
2017-09-15T09:23:43.430Z,998.59
2017-09-15T09:24:44.852Z,998.54
2017-09-15T09:25:46.276Z,998.51
2017-09-15T09:26:47.704Z,998.52
2017-09-15T09:27:49.133Z,998.51
2017-09-15T09:28:50.553Z,998.56
2017-09-15T09:29:51.979Z,998.51
2017-09-15T09:30:53.402Z,998.49
2017-09-15T09:31:54.822Z,998.50
2017-09-15T09:32:56.242Z,998.51
2017-09-15T09:33:57.665Z,998.60
2017-09-15T09:34:59.078Z,998.64
2017-09-15T09:36:00.508Z,998.62
2017-09-15T09:37:01.950Z,998.62
2017-09-15T09:38:03.384Z,998.69
2017-09-15T09:39:04.809Z,998.68
2017-09-15T09:40:06.232Z,998.62
2017-09-15T09:41:07.650Z,998.59
2017-09-15T09:42:09.092Z,998.56
2017-09-15T09:43:10.522Z,998.60
2017-09-15T09:44:11.954Z,998.55
2017-09-15T09:45:13.381Z,998.48
2017-09-15T09:46:14.800Z,998.42
2017-09-15T09:47:16.232Z,998.51
2017-09-15T09:48:17.658Z,998.50
2017-09-15T09:49:19.121Z,998.42
2017-09-15T09:50:20.571Z,998.45
2017-09-15T09:51:22.001Z,998.50
2017-09-15T09:52:23.428Z,998.47
2017-09-15T09:53:24.862Z,998.52
2017-09-15T09:54:26.281Z,998.54
2017-09-15T09:55:27.704Z,998.56
2017-09-15T09:56:29.228Z,998.55
2017-09-15T09:57:30.680Z,998.62
2017-09-15T09:58:32.097Z,998.55
2017-09-15T09:59:33.521Z,998.60
2017-09-15T10:00:34.946Z,998.59
2017-09-15T10:01:36.373Z,998.54
2017-09-15T10:02:37.794Z,998.53
2017-09-15T10:03:39.213Z,998.63
2017-09-15T10:04:40.659Z,998.62
2017-09-15T10:05:42.081Z,998.54
2017-09-15T10:06:43.504Z,998.62
2017-09-15T10:07:44.926Z,998.56
2017-09-15T10:08:46.354Z,998.59
2017-09-15T10:09:47.775Z,998.58
2017-09-15T10:10:49.198Z,998.58
2017-09-15T10:11:51.573Z,998.58
2017-09-15T10:12:52.996Z,998.56
2017-09-15T10:13:54.412Z,998.61
2017-09-15T10:14:55.842Z,998.57
2017-09-15T10:15:57.264Z,998.55
2017-09-15T10:16:58.686Z,998.54
2017-09-15T10:18:00.105Z,998.56
2017-09-15T10:19:01.525Z,998.48
2017-09-15T10:20:02.951Z,998.46
2017-09-15T10:21:04.372Z,998.49
2017-09-15T10:22:05.792Z,998.48
2017-09-15T10:23:07.222Z,998.52
2017-09-15T10:24:08.648Z,998.48
2017-09-15T10:25:10.073Z,998.45
2017-09-15T10:26:11.504Z,998.45
2017-09-15T10:27:12.928Z,998.43
2017-09-15T10:28:14.352Z,998.38
2017-09-15T10:29:15.775Z,998.39
2017-09-15T10:30:17.187Z,998.43
2017-09-15T10:31:18.609Z,998.46
2017-09-15T10:32:20.031Z,998.48
2017-09-15T10:33:21.458Z,998.47
2017-09-15T10:34:22.888Z,998.50
2017-09-15T10:35:24.316Z,998.50
2017-09-15T10:36:25.736Z,998.54
2017-09-15T10:37:27.154Z,998.54
2017-09-15T10:38:28.579Z,998.50
2017-09-15T10:39:30.005Z,998.50
2017-09-15T10:40:31.425Z,998.48
2017-09-15T10:41:32.850Z,998.45
2017-09-15T10:42:34.273Z,998.47
2017-09-15T10:43:35.699Z,998.54
2017-09-15T10:44:37.135Z,998.55
2017-09-15T10:45:38.558Z,998.56
2017-09-15T10:46:39.980Z,998.57
2017-09-15T10:47:41.402Z,998.63
2017-09-15T10:48:42.826Z,998.61
2017-09-15T10:49:44.249Z,998.64
2017-09-15T10:50:45.675Z,998.56
2017-09-15T10:51:47.103Z,998.52
2017-09-15T10:52:48.528Z,998.52
2017-09-15T10:53:49.968Z,998.57
2017-09-15T10:54:51.390Z,998.53
2017-09-15T10:55:52.817Z,998.55
2017-09-15T10:56:54.246Z,998.51
2017-09-15T10:57:55.678Z,998.46
2017-09-15T10:58:57.112Z,998.41
2017-09-15T10:59:58.544Z,998.41
2017-09-15T11:00:59.964Z,998.42
2017-09-15T11:02:01.381Z,998.42
2017-09-15T11:03:02.819Z,998.41
2017-09-15T11:04:04.245Z,998.38
2017-09-15T11:05:05.679Z,998.39
2017-09-15T11:06:07.103Z,998.38
2017-09-15T11:07:08.537Z,998.31
2017-09-15T11:08:09.962Z,998.36
2017-09-15T11:09:11.384Z,998.48
2017-09-15T11:10:12.814Z,998.45
2017-09-15T11:11:14.237Z,998.48
2017-09-15T11:12:15.669Z,998.52
2017-09-15T11:13:17.086Z,998.53
2017-09-15T11:14:18.509Z,998.53
2017-09-15T11:15:19.945Z,998.53
2017-09-15T11:16:21.372Z,998.57
2017-09-15T11:17:22.784Z,998.53
2017-09-15T11:18:24.207Z,998.53
2017-09-15T11:19:25.630Z,998.44
2017-09-15T11:20:27.048Z,998.60
2017-09-15T11:21:28.489Z,998.55
2017-09-15T11:22:29.911Z,998.47
2017-09-15T11:23:31.337Z,998.39
2017-09-15T11:24:32.759Z,998.36
2017-09-15T11:25:34.181Z,998.40
2017-09-15T11:26:35.604Z,998.40
2017-09-15T11:27:37.034Z,998.36
2017-09-15T11:28:38.458Z,998.33
2017-09-15T11:29:39.874Z,998.29
2017-09-15T11:30:41.308Z,998.34
2017-09-15T11:31:42.726Z,998.33
2017-09-15T11:32:44.145Z,998.32
2017-09-15T11:33:45.575Z,998.33
2017-09-15T11:34:46.995Z,998.32
2017-09-15T11:35:48.422Z,998.26
2017-09-15T11:36:49.855Z,998.23
2017-09-15T11:37:51.273Z,998.22
2017-09-15T11:38:52.729Z,998.15
2017-09-15T11:39:54.150Z,998.19
2017-09-15T11:40:55.646Z,998.20
2017-09-15T11:41:57.069Z,998.14
2017-09-15T11:42:58.494Z,998.17
2017-09-15T11:43:59.925Z,998.16
2017-09-15T11:45:01.341Z,998.19
2017-09-15T11:46:02.779Z,998.16
2017-09-15T11:47:04.204Z,998.17
2017-09-15T11:48:05.635Z,998.19
2017-09-15T11:49:07.093Z,998.18
2017-09-15T11:50:08.565Z,998.23
2017-09-15T11:51:09.988Z,998.20
2017-09-15T11:52:11.419Z,998.24
2017-09-15T11:53:12.922Z,998.23
2017-09-15T11:54:14.341Z,998.17
2017-09-15T11:55:15.773Z,998.18
2017-09-15T11:56:17.279Z,998.21
2017-09-15T11:57:18.699Z,998.29
2017-09-15T11:58:20.360Z,998.25
2017-09-15T11:59:21.798Z,998.32
2017-09-15T12:00:23.215Z,998.27
2017-09-15T12:01:24.651Z,998.32
2017-09-15T12:02:26.077Z,998.30
2017-09-15T12:03:27.514Z,998.37
2017-09-15T12:04:28.968Z,998.40
2017-09-15T12:05:30.397Z,998.41
2017-09-15T12:06:31.826Z,998.44
2017-09-15T12:07:33.251Z,998.44
2017-09-15T12:08:34.705Z,998.44
2017-09-15T12:09:36.132Z,998.41
2017-09-15T12:10:37.555Z,998.44
2017-09-15T12:11:38.995Z,998.42
2017-09-15T12:12:40.592Z,998.38
2017-09-15T12:13:41.958Z,998.41
2017-09-15T12:14:43.389Z,998.38
2017-09-15T12:15:44.813Z,998.41
2017-09-15T12:16:46.243Z,998.43
2017-09-15T12:17:47.666Z,998.55
2017-09-15T12:18:49.088Z,998.35
2017-09-15T12:19:50.514Z,998.44
2017-09-15T12:20:52.083Z,998.40
2017-09-15T12:21:53.506Z,998.51
2017-09-15T12:22:54.934Z,998.44
2017-09-15T12:23:56.360Z,998.44
2017-09-15T12:24:57.785Z,998.43
2017-09-15T12:25:59.211Z,998.44
2017-09-15T12:27:00.637Z,998.63
2017-09-15T12:28:02.064Z,998.52
2017-09-15T12:29:03.493Z,998.53
2017-09-15T12:30:05.106Z,998.94
2017-09-15T12:31:06.952Z,998.81
2017-09-15T12:32:08.375Z,998.67
2017-09-15T12:33:09.821Z,999.00
2017-09-15T12:34:11.358Z,998.84
2017-09-15T12:35:12.803Z,999.14
2017-09-15T12:36:14.266Z,999.14
2017-09-15T12:37:15.712Z,998.80
2017-09-15T12:38:17.126Z,999.18
2017-09-15T12:39:18.547Z,999.00
2017-09-15T12:40:19.971Z,999.14
2017-09-15T12:41:21.392Z,999.20
2017-09-15T12:42:22.828Z,998.92
2017-09-15T12:43:24.260Z,999.00
2017-09-15T12:44:25.680Z,999.22
2017-09-15T12:45:27.115Z,999.13
2017-09-15T12:46:28.539Z,999.02